Nearby METAR Reports

 

KISP - Islip, New York, USA
Distance from station: SW 4mi, 6km
Updated: Sat, 04/20/2019 12:56 pm EDT
Mist, Overcast
Mist, Overcast
 Wind from S
Wind: S 17 mph , 28 km/h, Gust: 26 mph , 43 km/h
Temperature: 61°F , 16°C
Dew Point: 61°F , 16°C
Humidity: 100%
Barometer: 29.81 inHg , 1009.5 hPa
Summary: Mist
Clouds: Overcast
Visibility: 5 miles , 8 km
Cloud details: Mostly cloudy 600 ft
Mostly cloudy 1500 ft
Overcast 6000 ft
2019/04/20 16:56 KISP 201656Z 17015G23KT 5SM BR BKN006 BKN015 OVC060 16/16 A2981 RMK AO2 PK WND 17026/1644 RAE1559B23E47 SLP095 P0001 T01610156
KHWV - Shirley, New York, USA
Distance from station: E 10mi, 16km
Updated: Sat, 04/20/2019 12:56 pm EDT
Overcast
Overcast
 Wind from S
Wind: S 17 mph , 28 km/h, Gust: 28 mph , 44 km/h
Temperature: 61°F , 16°C
Dew Point: 59°F , 15°C
Humidity: 94%
Barometer: 29.83 inHg , 1010.2 hPa
Clouds: Overcast
Visibility: 8 miles , 13 km
Cloud details: Mostly cloudy 500 ft
Overcast 9000 ft
2019/04/20 16:56 KHWV 201656Z AUTO 17015G24KT 8SM BKN005 OVC090 16/15 A2983 RMK AO2 PK WND 15032/1628 RAE52 CIG 003V009 SLP101 P0004 T01610150
 
KFRG - Farmingdale, New York, USA
Distance from station: WSW 20mi, 33km
Updated: Sat, 04/20/2019 12:53 pm EDT
Overcast
Overcast
 Wind from SSE
Wind: SSE 22 mph , 35 km/h
Temperature: 61°F , 16°C
Dew Point: 59°F , 15°C
Humidity: 94%
Barometer: 29.79 inHg , 1008.8 hPa
Clouds: Overcast
Visibility: 7 miles , 11 km
Cloud details: Overcast 500 ft
2019/04/20 16:53 KFRG 201653Z 16019KT 7SM OVC005 16/15 A2979 RMK AO2 RAB15E30 CIG 004V009 SLP087 P0000 T01610150
KBDR - Bridgeport, Connecticut, USA
Distance from station: N 23mi, 37km
Updated: Sat, 04/20/2019 1:12 pm EDT
Overcast
Overcast
 Wind from SSE
Wind: SSE 6 mph , 9 km/h
Temperature: 63°F , 17°C
Dew Point: 59°F , 15°C
Humidity: 88%
Barometer: 29.82 inHg , 1009.8 hPa
Clouds: Overcast
Visibility: 10 miles , 16 km
Cloud details: Overcast 1300 ft
2019/04/20 17:12 KBDR 201712Z 15005KT 10SM OVC013 17/15 A2982 RMK AO2 RAE04 P0000 T01670150
 
KFOK - Westhampton Beac, New York, USA
Distance from station: E 23mi, 37km
Updated: Sat, 04/20/2019 1:09 pm EDT
Light rain, Mist, Overcast
Light rain, Mist, Overcast
 Wind from S
Wind: S 13 mph , 20 km/h, Gust: 23 mph , 37 km/h
Temperature: 57°F , 14°C
Dew Point: 57°F , 14°C
Humidity: 100%
Barometer: 29.85 inHg , 1010.8 hPa
Summary: Light rain, Mist
Clouds: Overcast
Visibility: 3 miles , 5 km
Cloud details: Overcast 200 ft
2019/04/20 17:09 KFOK 201709Z 17011G20KT 3SM -RA BR OVC002 14/14 A2985 RMK AO2 CIG 001V005 P0000 T01390139
KHVN - New Haven/Tweed, Connecticut, USA
Distance from station: NNE 31mi, 50km
Updated: Sat, 04/20/2019 12:53 pm EDT
Mist, Overcast
Mist, Overcast
 Wind from calm
Wind: Calm
Temperature: 63°F , 17°C
Dew Point: 59°F , 15°C
Humidity: 88%
Barometer: 29.84 inHg , 1010.5 hPa
Summary: Mist
Clouds: Overcast
Visibility: 4 miles , 6 km
Cloud details: Partly cloudy 600 ft
Mostly cloudy 1300 ft
Overcast 1800 ft
2019/04/20 16:53 KHVN 201653Z 00000KT 4SM BR SCT006 BKN013 OVC018 17/15 A2984 RMK AO2 RAB05E18 SLP104 P0001 T01670150
 
KHPN - White Plains, New York, USA
Distance from station: WNW 37mi, 60km
Updated: Sat, 04/20/2019 12:56 pm EDT
Mist, Overcast
Mist, Overcast
 Wind from SSE
Wind: SSE 10 mph , 17 km/h
Temperature: 63°F , 17°C
Dew Point: 61°F , 16°C
Humidity: 94%
Barometer: 29.79 inHg , 1008.8 hPa
Summary: Mist
Clouds: Overcast
Visibility: 2 1/2 miles , 4 km
Cloud details: Overcast 700 ft
2019/04/20 16:56 KHPN 201656Z 16009KT 2 1/2SM BR OVC007 17/16 A2979 RMK AO2 CIG 005V010 SLP085 T01670156
KJFK - Nyc/Jfk Arpt, New York, USA
Distance from station: WSW 40mi, 64km
Updated: Sat, 04/20/2019 12:51 pm EDT
Mist, Overcast
Mist, Overcast
 Wind from SSE
Wind: SSE 17 mph , 28 km/h
Temperature: 59°F , 15°C
Dew Point: 59°F , 15°C
Humidity: 100%
Barometer: 29.77 inHg , 1008.1 hPa
Summary: Mist
Clouds: Overcast
Visibility: 3 miles , 5 km
Cloud details: Overcast 500 ft
2019/04/20 16:51 KJFK 201651Z 16015KT 3SM BR OVC005 15/15 A2977 RMK AO2 SLP081 T01500150
 
KDXR - Danbury, Connecticut, USA
Distance from station: NNW 42mi, 68km
Updated: Sat, 04/20/2019 12:53 pm EDT
Overcast
Overcast
 Wind from SSW
Wind: SSW 7 mph , 11 km/h, Gust: 23 mph , 37 km/h
Temperature: 64°F , 18°C
Dew Point: 61°F , 16°C
Humidity: 88%
Barometer: 29.79 inHg , 1008.8 hPa
Clouds: Overcast
Visibility: 10 miles , 16 km
Cloud details: Overcast 1400 ft
2019/04/20 16:53 KDXR 201653Z 20006G20KT 10SM OVC014 18/16 A2979 RMK AO2 SLP087 T01780156
KHTO - East Hampton, New York, USA
Distance from station: E 43mi, 69km
Updated: Sat, 04/20/2019 12:55 pm EDT
Mist, Overcast
Mist, Overcast
 Wind from S
Wind: S 13 mph , 20 km/h, Gust: 20 mph , 31 km/h
Temperature: 57°F , 14°C
Dew Point: 57°F , 14°C
Humidity: 100%
Barometer: 29.86 inHg , 1011.2 hPa
Summary: Mist
Clouds: Overcast
Visibility: 2 1/2 miles , 4 km
Cloud details: Overcast 300 ft
2019/04/20 16:55 KHTO 201655Z AUTO 17011G17KT 2 1/2SM BR OVC003 14/14 A2986 RMK AO2 P0003 T01400137
 
KOXC - Oxford/Waterbury, Connecticut, USA
Distance from station: N 43mi, 70km
Updated: Sat, 04/20/2019 12:51 pm EDT
Overcast
Overcast
 Wind from S
Wind: S 14 mph , 22 km/h, Gust: 20 mph , 31 km/h
Temperature: 64°F , 18°C
Dew Point: 61°F , 16°C
Humidity: 88%
Barometer: 29.83 inHg , 1010.2 hPa
Clouds: Overcast
Visibility: 10 miles , 16 km
Cloud details: Overcast 800 ft
2019/04/20 16:51 KOXC 201651Z 17012G17KT 10SM OVC008 18/16 A2983 RMK AO2 PK WND 19028/1554 RAE09 CIG 007V012 SLP110 P0000 T01780161
KLGA - Nyc/La Guardia, New York, USA
Distance from station: W 44mi, 70km
Updated: Sat, 04/20/2019 12:51 pm EDT
Mist, Overcast
Mist, Overcast
 Wind from S
Wind: S 17 mph , 28 km/h, Gust: 25 mph , 41 km/h
Temperature: 61°F , 16°C
Dew Point: 57°F , 14°C
Humidity: 88%
Barometer: 29.76 inHg , 1007.8 hPa
Summary: Mist
Clouds: Overcast
Visibility: 5 miles , 8 km
Cloud details: Overcast 600 ft
2019/04/20 16:51 KLGA 201651Z 18015G22KT 5SM BR OVC006 16/14 A2976 RMK AO2 SLP076 T01560144
 
KSNC - Chester, Connecticut, USA
Distance from station: NE 47mi, 76km
Updated: Sat, 04/20/2019 12:55 pm EDT
Light rain, Overcast
Light rain, Overcast
 Wind from SSE
Wind: SSE 13 mph , 20 km/h, Gust: 24 mph , 39 km/h
Temperature: 64°F , 18°C
Dew Point: 64°F , 18°C
Humidity: 100%
Barometer: 29.82 inHg , 1009.8 hPa
Summary: Light rain
Clouds: Overcast
Visibility: 2 miles , 3 km
Cloud details: Mostly cloudy 400 ft
Mostly cloudy 2700 ft
Overcast 3900 ft
2019/04/20 16:55 KSNC 201655Z AUTO 15011G21KT 120V180 2SM -RA BKN004 BKN027 OVC039 18/18 A2982 RMK AO2
KMMK - Meriden, Connecticut, USA
Distance from station: NNE 48mi, 77km
Updated: Sat, 04/20/2019 12:53 pm EDT
Overcast
Overcast
 Wind from SSE
Wind: SSE 14 mph , 22 km/h, Gust: 23 mph , 37 km/h
Temperature: 64°F , 18°C
Dew Point: 61°F , 16°C
Humidity: 88%
Barometer: 29.84 inHg , 1010.5 hPa
Clouds: Overcast
Visibility: 10 miles , 16 km
Cloud details: Overcast 1200 ft
2019/04/20 16:53 KMMK 201653Z AUTO 16012G20KT 10SM OVC012 18/16 A2984 RMK AO2 RAE15 SLP102 P0001 T01780161
 
KNYC - Nyc/Central Park, New York, USA
Distance from station: W 48mi, 77km
Updated: Sat, 04/20/2019 12:51 pm EDT
Haze, Overcast
Haze, Overcast
 Wind from varies
Wind: varies 3 mph , 6 km/h
Barometer: 29.79 inHg , 1008.8 hPa
Summary: Haze
Clouds: Overcast
Visibility: 6 miles , 10 km
Cloud details: Overcast 500 ft
2019/04/20 16:51 KNYC 201651Z AUTO VRB03KT 6SM HZ OVC005 A2979 RMK AO2 CIG 004V010 SLPNO $